sensor_id;sensor_type;location;lat;lon;timestamp;pressure;altitude;pressure_sealevel;temperature;humidity
41202;BME280;26936;50.524;8.684;2023-09-08T00:01:21;99643.97;;;15.55;100.00
41202;BME280;26936;50.524;8.684;2023-09-08T00:03:46;99645.44;;;15.51;100.00
41202;BME280;26936;50.524;8.684;2023-09-08T00:06:12;99646.22;;;15.51;100.00
41202;BME280;26936;50.524;8.684;2023-09-08T00:08:37;99634.72;;;15.46;100.00
41202;BME280;26936;50.524;8.684;2023-09-08T00:11:02;99650.13;;;15.63;100.00
41202;BME280;26936;50.524;8.684;2023-09-08T00:13:28;99635.78;;;15.57;100.00
41202;BME280;26936;50.524;8.684;2023-09-08T00:15:53;99631.06;;;15.54;100.00
41202;BME280;26936;50.524;8.684;2023-09-08T00:18:18;99629.03;;;15.55;100.00
41202;BME280;26936;50.524;8.684;2023-09-08T00:20:43;99622.13;;;15.38;100.00
41202;BME280;26936;50.524;8.684;2023-09-08T00:23:09;99624.34;;;15.34;100.00
41202;BME280;26936;50.524;8.684;2023-09-08T00:25:34;99624.16;;;15.37;100.00
41202;BME280;26936;50.524;8.684;2023-09-08T00:28:00;99620.59;;;15.28;100.00
41202;BME280;26936;50.524;8.684;2023-09-08T00:30:25;99617.16;;;15.24;100.00
41202;BME280;26936;50.524;8.684;2023-09-08T00:32:50;99628.00;;;15.25;100.00
41202;BME280;26936;50.524;8.684;2023-09-08T00:35:16;99625.81;;;15.20;100.00
41202;BME280;26936;50.524;8.684;2023-09-08T00:37:41;99628.81;;;15.17;100.00
41202;BME280;26936;50.524;8.684;2023-09-08T00:40:06;99621.75;;;15.12;100.00
41202;BME280;26936;50.524;8.684;2023-09-08T00:42:33;99621.72;;;15.21;100.00
41202;BME280;26936;50.524;8.684;2023-09-08T00:44:59;99615.72;;;15.19;100.00
41202;BME280;26936;50.524;8.684;2023-09-08T00:47:24;99623.47;;;15.10;100.00
41202;BME280;26936;50.524;8.684;2023-09-08T00:49:49;99621.44;;;15.10;100.00
41202;BME280;26936;50.524;8.684;2023-09-08T00:52:16;99622.09;;;15.05;100.00
41202;BME280;26936;50.524;8.684;2023-09-08T00:54:41;99626.84;;;14.99;100.00
41202;BME280;26936;50.524;8.684;2023-09-08T00:57:07;99618.81;;;14.98;100.00
41202;BME280;26936;50.524;8.684;2023-09-08T00:59:35;99625.13;;;14.92;100.00
41202;BME280;26936;50.524;8.684;2023-09-08T01:02:01;99626.53;;;14.97;100.00
41202;BME280;26936;50.524;8.684;2023-09-08T01:04:27;99631.72;;;14.98;100.00
41202;BME280;26936;50.524;8.684;2023-09-08T01:06:54;99629.69;;;14.99;100.00
41202;BME280;26936;50.524;8.684;2023-09-08T01:09:21;99620.84;;;14.97;100.00
41202;BME280;26936;50.524;8.684;2023-09-08T01:11:46;99633.16;;;14.94;100.00
41202;BME280;26936;50.524;8.684;2023-09-08T01:14:12;99626.53;;;14.88;100.00
41202;BME280;26936;50.524;8.684;2023-09-08T01:16:38;99628.59;;;14.87;100.00
41202;BME280;26936;50.524;8.684;2023-09-08T01:19:11;99633.03;;;14.79;100.00
41202;BME280;26936;50.524;8.684;2023-09-08T01:25:15;99636.50;;;14.74;100.00
41202;BME280;26936;50.524;8.684;2023-09-08T01:27:48;99629.72;;;14.72;100.00
41202;BME280;26936;50.524;8.684;2023-09-08T01:30:14;99627.03;;;14.68;100.00
41202;BME280;26936;50.524;8.684;2023-09-08T01:32:41;99628.34;;;14.58;100.00
41202;BME280;26936;50.524;8.684;2023-09-08T01:35:07;99629.28;;;14.64;100.00
41202;BME280;26936;50.524;8.684;2023-09-08T01:37:32;99629.88;;;14.68;100.00
41202;BME280;26936;50.524;8.684;2023-09-08T01:39:58;99632.09;;;14.64;100.00
41202;BME280;26936;50.524;8.684;2023-09-08T01:42:23;99625.47;;;14.67;100.00
41202;BME280;26936;50.524;8.684;2023-09-08T01:44:48;99627.06;;;14.59;100.00
41202;BME280;26936;50.524;8.684;2023-09-08T01:47:13;99625.50;;;14.49;100.00
41202;BME280;26936;50.524;8.684;2023-09-08T01:49:39;99625.34;;;14.44;100.00
41202;BME280;26936;50.524;8.684;2023-09-08T01:52:04;99624.72;;;14.40;100.00
41202;BME280;26936;50.524;8.684;2023-09-08T01:54:30;99623.16;;;14.39;100.00
41202;BME280;26936;50.524;8.684;2023-09-08T01:56:55;99625.50;;;14.31;100.00
41202;BME280;26936;50.524;8.684;2023-09-08T01:59:21;99621.13;;;14.30;100.00
41202;BME280;26936;50.524;8.684;2023-09-08T02:01:46;99627.25;;;14.29;100.00
41202;BME280;26936;50.524;8.684;2023-09-08T02:04:11;99628.81;;;14.30;100.00
41202;BME280;26936;50.524;8.684;2023-09-08T02:06:36;99621.59;;;14.29;100.00
41202;BME280;26936;50.524;8.684;2023-09-08T02:09:02;99617.97;;;14.28;100.00
41202;BME280;26936;50.524;8.684;2023-09-08T02:11:27;99624.56;;;14.34;100.00
41202;BME280;26936;50.524;8.684;2023-09-08T02:13:52;99614.50;;;14.33;100.00
41202;BME280;26936;50.524;8.684;2023-09-08T02:16:17;99620.00;;;14.37;100.00
41202;BME280;26936;50.524;8.684;2023-09-08T02:18:43;99614.03;;;14.35;100.00
41202;BME280;26936;50.524;8.684;2023-09-08T02:21:09;99625.50;;;14.31;100.00
41202;BME280;26936;50.524;8.684;2023-09-08T02:23:34;99614.19;;;14.31;100.00
41202;BME280;26936;50.524;8.684;2023-09-08T02:26:00;99627.53;;;14.31;100.00
41202;BME280;26936;50.524;8.684;2023-09-08T02:28:25;99629.28;;;14.28;100.00
41202;BME280;26936;50.524;8.684;2023-09-08T02:30:50;99623.41;;;14.23;100.00
41202;BME280;26936;50.524;8.684;2023-09-08T02:33:15;99623.59;;;14.19;100.00
41202;BME280;26936;50.524;8.684;2023-09-08T02:35:41;99619.81;;;14.13;100.00
41202;BME280;26936;50.524;8.684;2023-09-08T02:38:06;99612.56;;;14.12;100.00
41202;BME280;26936;50.524;8.684;2023-09-08T02:40:32;99619.47;;;14.11;100.00
41202;BME280;26936;50.524;8.684;2023-09-08T02:43:00;99609.91;;;14.09;100.00
41202;BME280;26936;50.524;8.684;2023-09-08T02:45:25;99615.72;;;14.05;100.00
41202;BME280;26936;50.524;8.684;2023-09-08T02:47:50;99616.19;;;14.04;100.00
41202;BME280;26936;50.524;8.684;2023-09-08T02:50:15;99608.97;;;14.03;100.00
41202;BME280;26936;50.524;8.684;2023-09-08T02:52:41;99613.50;;;14.00;100.00
41202;BME280;26936;50.524;8.684;2023-09-08T02:55:06;99602.78;;;13.95;100.00
41202;BME280;26936;50.524;8.684;2023-09-08T02:57:32;99615.06;;;13.92;100.00
41202;BME280;26936;50.524;8.684;2023-09-08T02:59:57;99613.19;;;13.89;100.00
41202;BME280;26936;50.524;8.684;2023-09-08T03:02:24;99615.38;;;13.85;100.00
41202;BME280;26936;50.524;8.684;2023-09-08T03:04:50;99609.69;;;13.85;100.00
41202;BME280;26936;50.524;8.684;2023-09-08T03:07:15;99613.81;;;13.84;100.00
41202;BME280;26936;50.524;8.684;2023-09-08T03:09:40;99620.72;;;13.83;100.00
41202;BME280;26936;50.524;8.684;2023-09-08T03:12:06;99618.84;;;13.80;100.00
41202;BME280;26936;50.524;8.684;2023-09-08T03:14:31;99612.84;;;13.78;100.00
41202;BME280;26936;50.524;8.684;2023-09-08T03:16:57;99620.56;;;13.78;100.00
41202;BME280;26936;50.524;8.684;2023-09-08T03:19:22;99615.50;;;13.63;100.00
41202;BME280;26936;50.524;8.684;2023-09-08T03:21:47;99613.16;;;13.71;100.00
41202;BME280;26936;50.524;8.684;2023-09-08T03:24:13;99617.84;;;13.65;100.00
41202;BME280;26936;50.524;8.684;2023-09-08T03:26:38;99612.34;;;13.61;100.00
41202;BME280;26936;50.524;8.684;2023-09-08T03:29:05;99614.69;;;13.63;100.00
41202;BME280;26936;50.524;8.684;2023-09-08T03:31:31;99609.66;;;13.58;100.00
41202;BME280;26936;50.524;8.684;2023-09-08T03:33:56;99608.25;;;13.53;100.00
41202;BME280;26936;50.524;8.684;2023-09-08T03:36:21;99609.94;;;13.51;100.00
41202;BME280;26936;50.524;8.684;2023-09-08T03:38:46;99618.44;;;13.51;100.00
41202;BME280;26936;50.524;8.684;2023-09-08T03:41:12;99612.81;;;13.60;100.00
41202;BME280;26936;50.524;8.684;2023-09-08T03:43:37;99619.38;;;13.48;100.00
41202;BME280;26936;50.524;8.684;2023-09-08T03:46:02;99607.09;;;13.42;100.00
41202;BME280;26936;50.524;8.684;2023-09-08T03:48:27;99617.16;;;13.43;100.00
41202;BME280;26936;50.524;8.684;2023-09-08T03:50:53;99619.97;;;13.43;100.00
41202;BME280;26936;50.524;8.684;2023-09-08T03:53:18;99614.47;;;13.39;100.00
41202;BME280;26936;50.524;8.684;2023-09-08T03:55:43;99619.03;;;13.46;100.00
41202;BME280;26936;50.524;8.684;2023-09-08T03:58:08;99620.28;;;13.36;100.00
41202;BME280;26936;50.524;8.684;2023-09-08T04:00:34;99622.19;;;13.39;100.00
41202;BME280;26936;50.524;8.684;2023-09-08T04:03:00;99631.59;;;13.36;100.00
41202;BME280;26936;50.524;8.684;2023-09-08T04:05:25;99633.78;;;13.32;100.00
41202;BME280;26936;50.524;8.684;2023-09-08T04:07:50;99630.63;;;13.30;100.00
41202;BME280;26936;50.524;8.684;2023-09-08T04:10:16;99628.72;;;13.27;100.00
41202;BME280;26936;50.524;8.684;2023-09-08T04:12:41;99634.84;;;13.25;100.00
41202;BME280;26936;50.524;8.684;2023-09-08T04:15:07;99635.00;;;13.22;100.00
41202;BME280;26936;50.524;8.684;2023-09-08T04:17:32;99628.25;;;13.19;100.00
41202;BME280;26936;50.524;8.684;2023-09-08T04:19:58;99624.47;;;13.22;100.00
41202;BME280;26936;50.524;8.684;2023-09-08T04:22:23;99632.97;;;13.22;100.00
41202;BME280;26936;50.524;8.684;2023-09-08T04:24:49;99629.53;;;13.36;100.00
41202;BME280;26936;50.524;8.684;2023-09-08T04:27:15;99639.44;;;13.32;100.00
41202;BME280;26936;50.524;8.684;2023-09-08T04:29:40;99635.03;;;13.31;100.00
41202;BME280;26936;50.524;8.684;2023-09-08T04:32:05;99630.00;;;13.35;100.00
41202;BME280;26936;50.524;8.684;2023-09-08T04:34:43;99630.47;;;13.33;100.00
41202;BME280;26936;50.524;8.684;2023-09-08T04:37:08;99630.94;;;13.32;100.00
41202;BME280;26936;50.524;8.684;2023-09-08T04:39:34;99629.53;;;13.27;100.00
41202;BME280;26936;50.524;8.684;2023-09-08T04:41:59;99634.59;;;13.41;100.00
41202;BME280;26936;50.524;8.684;2023-09-08T04:44:25;99635.59;;;13.47;100.00
41202;BME280;26936;50.524;8.684;2023-09-08T04:46:51;99645.16;;;13.41;100.00
41202;BME280;26936;50.524;8.684;2023-09-08T04:49:16;99640.72;;;13.40;100.00
41202;BME280;26936;50.524;8.684;2023-09-08T04:51:42;99645.44;;;13.43;100.00
41202;BME280;26936;50.524;8.684;2023-09-08T04:54:08;99644.50;;;13.37;100.00
41202;BME280;26936;50.524;8.684;2023-09-08T04:56:33;99648.59;;;13.36;100.00
41202;BME280;26936;50.524;8.684;2023-09-08T04:58:58;99647.28;;;13.28;100.00
41202;BME280;26936;50.524;8.684;2023-09-08T05:01:26;99640.31;;;13.20;100.00
41202;BME280;26936;50.524;8.684;2023-09-08T05:03:51;99644.75;;;13.21;100.00
41202;BME280;26936;50.524;8.684;2023-09-08T05:06:16;99645.22;;;13.19;100.00
41202;BME280;26936;50.524;8.684;2023-09-08T05:08:42;99639.22;;;13.17;100.00
41202;BME280;26936;50.524;8.684;2023-09-08T05:11:09;99657.00;;;13.27;100.00
41202;BME280;26936;50.524;8.684;2023-09-08T05:13:34;99649.59;;;13.20;100.00
41202;BME280;26936;50.524;8.684;2023-09-08T05:15:59;99658.88;;;13.21;100.00
41202;BME280;26936;50.524;8.684;2023-09-08T05:18:26;99657.47;;;13.25;100.00
41202;BME280;26936;50.524;8.684;2023-09-08T05:20:52;99664.09;;;13.31;100.00
41202;BME280;26936;50.524;8.684;2023-09-08T05:23:17;99658.44;;;13.31;100.00
41202;BME280;26936;50.524;8.684;2023-09-08T05:25:43;99657.22;;;13.32;100.00
41202;BME280;26936;50.524;8.684;2023-09-08T05:28:09;99658.50;;;13.40;100.00
41202;BME280;26936;50.524;8.684;2023-09-08T05:30:34;99658.50;;;13.40;100.00
41202;BME280;26936;50.524;8.684;2023-09-08T05:33:00;99657.69;;;13.40;100.00
41202;BME280;26936;50.524;8.684;2023-09-08T05:35:25;99663.53;;;13.45;100.00
41202;BME280;26936;50.524;8.684;2023-09-08T05:37:50;99655.81;;;13.46;100.00
41202;BME280;26936;50.524;8.684;2023-09-08T05:40:15;99660.88;;;13.51;100.00
41202;BME280;26936;50.524;8.684;2023-09-08T05:42:41;99665.63;;;13.54;100.00
41202;BME280;26936;50.524;8.684;2023-09-08T05:45:06;99660.59;;;13.58;100.00
41202;BME280;26936;50.524;8.684;2023-09-08T05:47:31;99664.56;;;13.60;100.00
41202;BME280;26936;50.524;8.684;2023-09-08T05:49:57;99652.91;;;13.68;100.00
41202;BME280;26936;50.524;8.684;2023-09-08T05:52:22;99656.25;;;13.84;100.00
41202;BME280;26936;50.524;8.684;2023-09-08T05:54:47;99667.13;;;13.86;100.00
41202;BME280;26936;50.524;8.684;2023-09-08T05:57:13;99672.63;;;13.89;100.00
41202;BME280;26936;50.524;8.684;2023-09-08T05:59:38;99671.22;;;13.94;100.00
41202;BME280;26936;50.524;8.684;2023-09-08T06:02:04;99671.09;;;13.97;100.00
41202;BME280;26936;50.524;8.684;2023-09-08T06:04:29;99681.00;;;14.02;100.00
41202;BME280;26936;50.524;8.684;2023-09-08T06:06:57;99674.56;;;14.01;100.00
41202;BME280;26936;50.524;8.684;2023-09-08T06:09:22;99680.53;;;14.03;100.00
41202;BME280;26936;50.524;8.684;2023-09-08T06:11:48;99668.44;;;14.03;100.00
41202;BME280;26936;50.524;8.684;2023-09-08T06:14:13;99666.06;;;14.10;100.00
41202;BME280;26936;50.524;8.684;2023-09-08T06:16:38;99665.44;;;14.15;100.00
41202;BME280;26936;50.524;8.684;2023-09-08T06:19:03;99668.94;;;14.28;100.00
41202;BME280;26936;50.524;8.684;2023-09-08T06:21:29;99669.91;;;14.34;100.00
41202;BME280;26936;50.524;8.684;2023-09-08T06:23:54;99668.50;;;14.48;100.00
41202;BME280;26936;50.524;8.684;2023-09-08T06:26:19;99663.13;;;14.59;100.00
41202;BME280;26936;50.524;8.684;2023-09-08T06:28:44;99663.59;;;14.66;100.00
41202;BME280;26936;50.524;8.684;2023-09-08T06:31:10;99669.88;;;14.70;100.00
41202;BME280;26936;50.524;8.684;2023-09-08T06:33:35;99673.84;;;14.73;100.00
41202;BME280;26936;50.524;8.684;2023-09-08T06:36:00;99671.78;;;14.73;100.00
41202;BME280;26936;50.524;8.684;2023-09-08T06:38:26;99670.66;;;14.80;100.00
41202;BME280;26936;50.524;8.684;2023-09-08T06:40:51;99668.59;;;14.89;100.00
41202;BME280;26936;50.524;8.684;2023-09-08T06:43:19;99664.97;;;14.98;100.00
41202;BME280;26936;50.524;8.684;2023-09-08T06:45:47;99668.75;;;15.04;100.00
41202;BME280;26936;50.524;8.684;2023-09-08T06:48:14;99669.16;;;15.21;100.00
41202;BME280;26936;50.524;8.684;2023-09-08T06:50:39;99666.72;;;15.37;100.00
41202;BME280;26936;50.524;8.684;2023-09-08T06:53:04;99668.19;;;15.42;100.00
41202;BME280;26936;50.524;8.684;2023-09-08T06:55:30;99669.59;;;15.46;100.00
41202;BME280;26936;50.524;8.684;2023-09-08T06:57:56;99667.16;;;15.54;100.00
41202;BME280;26936;50.524;8.684;2023-09-08T07:00:21;99668.88;;;15.60;100.00
41202;BME280;26936;50.524;8.684;2023-09-08T07:02:47;99666.00;;;15.69;100.00
41202;BME280;26936;50.524;8.684;2023-09-08T07:05:14;99656.84;;;15.74;100.00
41202;BME280;26936;50.524;8.684;2023-09-08T07:07:40;99659.13;;;15.85;100.00
41202;BME280;26936;50.524;8.684;2023-09-08T07:10:06;99659.84;;;15.94;100.00
41202;BME280;26936;50.524;8.684;2023-09-08T07:12:31;99658.94;;;16.12;100.00
41202;BME280;26936;50.524;8.684;2023-09-08T07:14:57;99650.69;;;16.23;100.00
41202;BME280;26936;50.524;8.684;2023-09-08T07:17:23;99663.59;;;16.24;100.00
41202;BME280;26936;50.524;8.684;2023-09-08T07:19:52;99666.81;;;16.41;100.00
41202;BME280;26936;50.524;8.684;2023-09-08T07:22:18;99662.53;;;16.45;100.00
41202;BME280;26936;50.524;8.684;2023-09-08T07:24:44;99664.72;;;16.65;100.00
41202;BME280;26936;50.524;8.684;2023-09-08T07:27:09;99661.56;;;16.63;100.00
41202;BME280;26936;50.524;8.684;2023-09-08T07:29:35;99660.63;;;16.66;100.00
41202;BME280;26936;50.524;8.684;2023-09-08T07:32:00;99668.28;;;16.74;100.00
41202;BME280;26936;50.524;8.684;2023-09-08T07:34:25;99672.13;;;16.86;100.00
41202;BME280;26936;50.524;8.684;2023-09-08T07:36:50;99655.16;;;16.91;100.00
41202;BME280;26936;50.524;8.684;2023-09-08T07:39:16;99657.81;;;16.95;100.00
41202;BME280;26936;50.524;8.684;2023-09-08T07:41:42;99657.31;;;17.11;100.00
41202;BME280;26936;50.524;8.684;2023-09-08T07:44:07;99664.38;;;17.15;100.00
41202;BME280;26936;50.524;8.684;2023-09-08T07:46:33;99658.69;;;17.30;100.00
41202;BME280;26936;50.524;8.684;2023-09-08T07:48:59;99658.00;;;17.49;100.00
41202;BME280;26936;50.524;8.684;2023-09-08T07:51:25;99662.38;;;17.80;100.00
41202;BME280;26936;50.524;8.684;2023-09-08T07:53:50;99659.50;;;17.80;100.00
41202;BME280;26936;50.524;8.684;2023-09-08T07:56:15;99662.13;;;18.18;100.00
41202;BME280;26936;50.524;8.684;2023-09-08T07:58:41;99651.44;;;18.33;100.00
41202;BME280;26936;50.524;8.684;2023-09-08T08:01:06;99659.09;;;18.41;100.00
41202;BME280;26936;50.524;8.684;2023-09-08T08:03:32;99663.06;;;18.49;100.00
41202;BME280;26936;50.524;8.684;2023-09-08T08:05:59;99664.00;;;18.61;100.00
41202;BME280;26936;50.524;8.684;2023-09-08T08:08:25;99659.09;;;18.61;100.00
41202;BME280;26936;50.524;8.684;2023-09-08T08:10:50;99656.28;;;18.67;100.00
41202;BME280;26936;50.524;8.684;2023-09-08T08:13:15;99660.25;;;18.75;100.00
41202;BME280;26936;50.524;8.684;2023-09-08T08:15:42;99655.13;;;18.79;100.00
41202;BME280;26936;50.524;8.684;2023-09-08T08:18:07;99662.16;;;18.83;100.00
41202;BME280;26936;50.524;8.684;2023-09-08T08:20:35;99654.31;;;19.04;100.00
41202;BME280;26936;50.524;8.684;2023-09-08T08:23:05;99662.75;;;19.13;100.00
41202;BME280;26936;50.524;8.684;2023-09-08T08:25:30;99655.78;;;19.20;100.00
41202;BME280;26936;50.524;8.684;2023-09-08T08:27:56;99654.44;;;19.41;100.00
41202;BME280;26936;50.524;8.684;2023-09-08T08:30:23;99660.59;;;19.59;100.00
41202;BME280;26936;50.524;8.684;2023-09-08T08:32:49;99656.34;;;19.86;97.35
41202;BME280;26936;50.524;8.684;2023-09-08T08:35:16;99646.84;;;20.05;93.39
41202;BME280;26936;50.524;8.684;2023-09-08T08:37:41;99645.41;;;20.27;89.70
41202;BME280;26936;50.524;8.684;2023-09-08T08:40:09;99652.56;;;20.53;88.68
41202;BME280;26936;50.524;8.684;2023-09-08T08:42:35;99650.28;;;20.79;82.14
41202;BME280;26936;50.524;8.684;2023-09-08T08:45:01;99652.19;;;21.10;79.05
41202;BME280;26936;50.524;8.684;2023-09-08T08:47:30;99650.13;;;21.05;80.61
41202;BME280;26936;50.524;8.684;2023-09-08T08:49:57;99652.22;;;21.15;80.42
41202;BME280;26936;50.524;8.684;2023-09-08T08:52:26;99653.53;;;21.20;79.58
41202;BME280;26936;50.524;8.684;2023-09-08T08:54:51;99656.66;;;21.44;77.90
41202;BME280;26936;50.524;8.684;2023-09-08T08:57:17;99649.91;;;21.58;76.70
41202;BME280;26936;50.524;8.684;2023-09-08T08:59:42;99657.72;;;21.63;76.54
41202;BME280;26936;50.524;8.684;2023-09-08T09:02:09;99653.28;;;21.79;75.31
41202;BME280;26936;50.524;8.684;2023-09-08T09:04:37;99652.72;;;21.91;74.19
41202;BME280;26936;50.524;8.684;2023-09-08T09:07:04;99651.94;;;22.07;72.03
41202;BME280;26936;50.524;8.684;2023-09-08T09:09:31;99647.00;;;22.02;72.54
41202;BME280;26936;50.524;8.684;2023-09-08T09:11:56;99652.97;;;22.15;72.64
41202;BME280;26936;50.524;8.684;2023-09-08T09:14:21;99649.00;;;22.29;69.51
41202;BME280;26936;50.524;8.684;2023-09-08T09:16:48;99650.53;;;22.36;72.08
41202;BME280;26936;50.524;8.684;2023-09-08T09:19:19;99647.88;;;22.49;71.36
41202;BME280;26936;50.524;8.684;2023-09-08T09:21:51;99640.81;;;22.50;71.52
41202;BME280;26936;50.524;8.684;2023-09-08T09:24:31;99642.63;;;22.58;70.88
41202;BME280;26936;50.524;8.684;2023-09-08T09:26:59;99641.47;;;22.83;69.79
41202;BME280;26936;50.524;8.684;2023-09-08T09:29:25;99638.81;;;22.91;67.67
41202;BME280;26936;50.524;8.684;2023-09-08T09:32:07;99643.66;;;23.07;67.44
41202;BME280;26936;50.524;8.684;2023-09-08T09:34:34;99638.22;;;23.04;67.77
41202;BME280;26936;50.524;8.684;2023-09-08T09:36:59;99640.06;;;23.01;68.75
41202;BME280;26936;50.524;8.684;2023-09-08T09:39:26;99638.91;;;23.15;68.18
41202;BME280;26936;50.524;8.684;2023-09-08T09:41:56;99635.50;;;23.17;67.87
41202;BME280;26936;50.524;8.684;2023-09-08T09:44:22;99630.00;;;23.19;68.50
41202;BME280;26936;50.524;8.684;2023-09-08T09:46:48;99637.44;;;23.38;66.05
41202;BME280;26936;50.524;8.684;2023-09-08T09:49:16;99640.75;;;23.48;63.75
41202;BME280;26936;50.524;8.684;2023-09-08T09:51:47;99638.38;;;23.52;63.88
41202;BME280;26936;50.524;8.684;2023-09-08T09:54:13;99643.59;;;23.53;64.59
41202;BME280;26936;50.524;8.684;2023-09-08T09:56:39;99638.38;;;23.52;61.97
41202;BME280;26936;50.524;8.684;2023-09-08T09:59:07;99641.91;;;23.69;63.41
41202;BME280;26936;50.524;8.684;2023-09-08T10:01:33;99643.59;;;23.83;63.58
41202;BME280;26936;50.524;8.684;2023-09-08T10:03:59;99630.34;;;23.74;62.93
41202;BME280;26936;50.524;8.684;2023-09-08T10:06:25;99633.00;;;23.96;61.96
41202;BME280;26936;50.524;8.684;2023-09-08T10:08:51;99630.81;;;24.08;62.29
41202;BME280;26936;50.524;8.684;2023-09-08T10:11:19;99628.56;;;24.20;62.78
41202;BME280;26936;50.524;8.684;2023-09-08T10:13:47;99631.94;;;24.24;61.72
41202;BME280;26936;50.524;8.684;2023-09-08T10:16:16;99631.25;;;24.36;61.28
41202;BME280;26936;50.524;8.684;2023-09-08T10:18:44;99622.16;;;24.32;61.34
41202;BME280;26936;50.524;8.684;2023-09-08T10:21:12;99618.44;;;24.37;62.80
41202;BME280;26936;50.524;8.684;2023-09-08T10:23:43;99625.59;;;24.49;63.69
41202;BME280;26936;50.524;8.684;2023-09-08T10:26:10;99628.16;;;24.53;60.23
41202;BME280;26936;50.524;8.684;2023-09-08T10:28:37;99614.94;;;24.63;60.06
41202;BME280;26936;50.524;8.684;2023-09-08T10:31:03;99617.53;;;24.66;61.95
41202;BME280;26936;50.524;8.684;2023-09-08T10:33:30;99619.97;;;24.81;60.95
41202;BME280;26936;50.524;8.684;2023-09-08T10:35:57;99614.19;;;24.99;58.19
41202;BME280;26936;50.524;8.684;2023-09-08T10:38:28;99614.28;;;24.94;58.68
41202;BME280;26936;50.524;8.684;2023-09-08T10:44:04;99607.25;;;25.08;60.45
41202;BME280;26936;50.524;8.684;2023-09-08T10:46:33;99604.91;;;25.06;60.31
41202;BME280;26936;50.524;8.684;2023-09-08T10:49:04;99601.16;;;25.11;63.67
41202;BME280;26936;50.524;8.684;2023-09-08T10:51:31;99603.47;;;25.31;61.28
41202;BME280;26936;50.524;8.684;2023-09-08T10:53:57;99605.00;;;25.51;59.92
41202;BME280;26936;50.524;8.684;2023-09-08T10:56:27;99597.13;;;25.52;59.15
41202;BME280;26936;50.524;8.684;2023-09-08T10:58:54;99593.47;;;25.64;57.94
41202;BME280;26936;50.524;8.684;2023-09-08T11:01:20;99597.56;;;25.56;60.58
41202;BME280;26936;50.524;8.684;2023-09-08T11:03:51;99596.94;;;25.63;62.26
41202;BME280;26936;50.524;8.684;2023-09-08T11:06:18;99590.63;;;25.77;60.02
41202;BME280;26936;50.524;8.684;2023-09-08T11:08:45;99600.72;;;25.84;59.79
41202;BME280;26936;50.524;8.684;2023-09-08T11:11:13;99596.81;;;25.81;57.09
41202;BME280;26936;50.524;8.684;2023-09-08T11:13:38;99593.41;;;25.83;58.83
41202;BME280;26936;50.524;8.684;2023-09-08T11:16:05;99591.63;;;25.93;59.71
41202;BME280;26936;50.524;8.684;2023-09-08T11:18:31;99595.75;;;25.97;58.16
41202;BME280;26936;50.524;8.684;2023-09-08T11:20:59;99595.75;;;25.97;58.40
41202;BME280;26936;50.524;8.684;2023-09-08T11:23:25;99592.03;;;26.02;58.52
41202;BME280;26936;50.524;8.684;2023-09-08T11:25:51;99594.91;;;26.15;57.99
41202;BME280;26936;50.524;8.684;2023-09-08T11:28:17;99588.44;;;26.35;55.72
41202;BME280;26936;50.524;8.684;2023-09-08T11:30:45;99587.66;;;26.48;56.58
41202;BME280;26936;50.524;8.684;2023-09-08T11:33:18;99587.78;;;26.42;60.08
41202;BME280;26936;50.524;8.684;2023-09-08T11:35:48;99582.94;;;26.58;55.64
41202;BME280;26936;50.524;8.684;2023-09-08T11:38:13;99579.44;;;26.39;57.16
41202;BME280;26936;50.524;8.684;2023-09-08T11:40:39;99577.75;;;26.43;57.01
41202;BME280;26936;50.524;8.684;2023-09-08T11:43:06;99572.97;;;26.59;58.45
41202;BME280;26936;50.524;8.684;2023-09-08T11:45:34;99579.16;;;26.63;57.99
41202;BME280;26936;50.524;8.684;2023-09-08T11:48:00;99569.41;;;26.66;58.31
41202;BME280;26936;50.524;8.684;2023-09-08T11:50:25;99582.03;;;26.76;57.77
41202;BME280;26936;50.524;8.684;2023-09-08T11:52:53;99577.53;;;27.01;55.71
41202;BME280;26936;50.524;8.684;2023-09-08T11:55:21;99573.78;;;26.93;56.55
41202;BME280;26936;50.524;8.684;2023-09-08T11:57:49;99575.00;;;27.18;54.54
41202;BME280;26936;50.524;8.684;2023-09-08T12:00:17;99576.91;;;26.95;57.79
41202;BME280;26936;50.524;8.684;2023-09-08T12:02:44;99569.41;;;27.00;57.79
41202;BME280;26936;50.524;8.684;2023-09-08T12:05:28;99575.28;;;27.07;57.18
41202;BME280;26936;50.524;8.684;2023-09-08T12:07:55;99576.13;;;27.15;53.61
41202;BME280;26936;50.524;8.684;2023-09-08T12:10:21;99579.16;;;27.10;57.43
41202;BME280;26936;50.524;8.684;2023-09-08T12:12:52;99577.13;;;27.18;55.64
41202;BME280;26936;50.524;8.684;2023-09-08T12:17:59;99565.19;;;27.34;52.49
41202;BME280;26936;50.524;8.684;2023-09-08T12:20:25;99566.50;;;27.54;53.11
41202;BME280;26936;50.524;8.684;2023-09-08T12:22:50;99558.47;;;27.39;54.14
41202;BME280;26936;50.524;8.684;2023-09-08T12:25:16;99560.63;;;27.46;54.98
41202;BME280;26936;50.524;8.684;2023-09-08T12:27:42;99550.34;;;27.58;53.71
41202;BME280;26936;50.524;8.684;2023-09-08T12:30:08;99551.31;;;27.61;54.49
41202;BME280;26936;50.524;8.684;2023-09-08T12:32:35;99544.47;;;27.71;51.88
41202;BME280;26936;50.524;8.684;2023-09-08T12:35:02;99549.53;;;27.78;52.79
41202;BME280;26936;50.524;8.684;2023-09-08T12:37:28;99547.66;;;27.88;53.15
41202;BME280;26936;50.524;8.684;2023-09-08T12:39:55;99542.31;;;27.92;49.68
41202;BME280;26936;50.524;8.684;2023-09-08T12:42:20;99542.59;;;28.10;51.74
41202;BME280;26936;50.524;8.684;2023-09-08T12:44:47;99540.38;;;28.23;50.85
41202;BME280;26936;50.524;8.684;2023-09-08T12:47:12;99539.56;;;28.15;49.91
41202;BME280;26936;50.524;8.684;2023-09-08T12:49:38;99527.44;;;28.24;50.49
41202;BME280;26936;50.524;8.684;2023-09-08T12:52:04;99521.22;;;28.56;48.55
41202;BME280;26936;50.524;8.684;2023-09-08T12:54:29;99528.13;;;28.45;49.97
41202;BME280;26936;50.524;8.684;2023-09-08T12:56:55;99518.06;;;28.39;50.89